Time;durP1;ratioP1;P1;durP2;ratioP2;P2;SDS_P1;SDS_P2;PMS_P1;PMS_P2;Temp;Humidity;BMP_temperature;BMP_pressure;BME280_temperature;BME280_humidity;BME280_pressure;Samples;Min_cycle;Max_cycle;Signal;HPM_P1;HPM_P2
2022/11/24 00:00:05;;;;;;;;;;;;;;;6.32;100.00;97093.88;5069874;28;19992;-60
2022/11/24 00:02:32;;;;;;;;;;;;;;;6.35;100.00;97099.47;5070003;28;19925;-61
2022/11/24 00:04:58;;;;;;;;;;;;;;;6.39;100.00;97097.91;5069884;28;19949;-60
2022/11/24 00:07:26;;;;;;;;;;;;;;;6.35;100.00;97101.31;5069960;28;19939;-60
2022/11/24 00:09:52;;;;;;;;;;;;;;;6.33;100.00;97096.28;5069975;28;19924;-60
2022/11/24 00:12:18;;;;;;;;;;;;;;;6.45;100.00;97099.53;5069874;28;20326;-60
2022/11/24 00:14:45;;;;;;;;;;;;;;;6.53;100.00;97105.44;5069827;28;20024;-60
2022/11/24 00:17:12;;;;;;;;;;;;;;;6.53;100.00;97099.06;5069642;28;19924;-61
2022/11/24 00:19:38;;;;;;;;;;;;;;;6.63;100.00;97102.81;5069815;28;19956;-62
2022/11/24 00:22:05;;;;;;;;;;;;;;;6.57;100.00;97101.19;5068952;28;19948;-62
2022/11/24 00:24:32;;;;;;;;;;;;;;;6.45;100.00;97102.19;5063190;28;20417;-61
2022/11/24 00:27:00;;;;;;;;;;;;;;;6.40;100.00;97117.28;5068836;28;21525;-60
2022/11/24 00:29:27;;;;;;;;;;;;;;;6.45;100.00;97118.13;5069530;28;19995;-60
2022/11/24 00:31:53;;;;;;;;;;;;;;;6.38;100.00;97116.72;5069308;28;19995;-61
2022/11/24 00:34:19;;;;;;;;;;;;;;;6.33;100.00;97109.56;5061355;28;19958;-59
2022/11/24 00:36:46;;;;;;;;;;;;;;;6.31;100.00;97122.25;5069464;28;19925;-60
2022/11/24 00:39:13;;;;;;;;;;;;;;;6.29;100.00;97119.06;5069210;28;19924;-60
2022/11/24 00:41:41;;;;;;;;;;;;;;;6.28;100.00;97128.06;5069466;28;19944;-60
2022/11/24 00:44:07;;;;;;;;;;;;;;;6.40;100.00;97126.03;5069201;28;19981;-60
2022/11/24 00:46:34;;;;;;;;;;;;;;;6.27;100.00;97129.13;5069631;28;19994;-60
2022/11/24 00:49:00;;;;;;;;;;;;;;;6.35;100.00;97133.13;5069172;28;19925;-60
2022/11/24 00:51:29;;;;;;;;;;;;;;;6.45;100.00;97139.31;5069380;28;19992;-61
2022/11/24 00:53:55;;;;;;;;;;;;;;;6.55;100.00;97151.06;5068983;28;19932;-60
2022/11/24 00:56:22;;;;;;;;;;;;;;;6.60;100.00;97151.09;5069394;28;19993;-61
2022/11/24 00:58:50;;;;;;;;;;;;;;;6.71;100.00;97139.50;5069245;28;19979;-60
2022/11/24 01:01:17;;;;;;;;;;;;;;;6.75;100.00;97144.00;5069226;28;19928;-61
2022/11/24 01:03:45;;;;;;;;;;;;;;;6.77;100.00;97149.06;5069379;28;19969;-60
2022/11/24 01:06:13;;;;;;;;;;;;;;;6.89;100.00;97155.78;5069085;28;19925;-60
2022/11/24 01:08:39;;;;;;;;;;;;;;;6.94;100.00;97153.16;5069199;28;20035;-60
2022/11/24 01:11:07;;;;;;;;;;;;;;;6.97;100.00;97151.81;5073146;28;19992;-61
2022/11/24 01:13:33;;;;;;;;;;;;;;;6.96;100.00;97158.97;5073204;28;19988;-60
2022/11/24 01:16:01;;;;;;;;;;;;;;;6.93;100.00;97156.06;5072813;28;20008;-60
2022/11/24 01:18:27;;;;;;;;;;;;;;;6.82;100.00;97159.72;5073004;28;20236;-61
2022/11/24 01:20:53;;;;;;;;;;;;;;;6.70;100.00;97167.06;5072754;28;19970;-61
2022/11/24 01:23:20;;;;;;;;;;;;;;;6.74;100.00;97163.66;5057480;28;19963;-60
2022/11/24 01:25:46;;;;;;;;;;;;;;;6.81;100.00;97171.38;5072871;28;19967;-60
2022/11/24 01:28:13;;;;;;;;;;;;;;;6.84;100.00;97171.66;5072804;28;20059;-60
2022/11/24 01:30:40;;;;;;;;;;;;;;;6.85;100.00;97177.78;5072688;28;19924;-60
2022/11/24 01:33:07;;;;;;;;;;;;;;;7.03;100.00;97178.13;5072554;28;19976;-60
2022/11/24 01:35:34;;;;;;;;;;;;;;;6.89;100.00;97184.97;5072725;28;19947;-60
2022/11/24 01:38:00;;;;;;;;;;;;;;;6.92;100.00;97184.47;5054667;28;19931;-60
2022/11/24 01:40:26;;;;;;;;;;;;;;;6.89;100.00;97181.53;5072556;28;19960;-60
2022/11/24 01:42:53;;;;;;;;;;;;;;;6.88;100.00;97185.22;5072453;28;19980;-60
2022/11/24 01:45:33;;;;;;;;;;;;;;;6.83;100.00;97187.84;5072540;28;19964;-61
2022/11/24 01:48:02;;;;;;;;;;;;;;;6.88;100.00;97196.66;5072232;28;19947;-60
2022/11/24 01:50:30;;;;;;;;;;;;;;;6.85;100.00;97202.47;5054511;28;19964;-59
2022/11/24 01:52:56;;;;;;;;;;;;;;;6.78;100.00;97212.50;5072047;28;19992;-60
2022/11/24 01:55:24;;;;;;;;;;;;;;;6.86;100.00;97197.97;5072288;28;20428;-60
2022/11/24 01:57:54;;;;;;;;;;;;;;;6.90;100.00;97209.66;5072209;28;19924;-61
2022/11/24 02:00:21;;;;;;;;;;;;;;;6.95;100.00;97213.16;5064127;28;19924;-60
2022/11/24 02:02:47;;;;;;;;;;;;;;;6.90;100.00;97209.66;5072136;28;19968;-60
2022/11/24 02:05:17;;;;;;;;;;;;;;;6.97;100.00;97216.34;5071894;28;19992;-61
2022/11/24 02:07:46;;;;;;;;;;;;;;;6.82;100.00;97221.56;5072062;28;19931;-60
2022/11/24 02:10:14;;;;;;;;;;;;;;;6.88;100.00;97230.34;5071872;28;20019;-61
2022/11/24 02:12:43;;;;;;;;;;;;;;;6.87;100.00;97226.09;5071710;28;19925;-60
2022/11/24 02:15:10;;;;;;;;;;;;;;;6.86;100.00;97224.50;5071807;28;19932;-61
2022/11/24 02:17:37;;;;;;;;;;;;;;;6.88;100.00;97230.34;5072208;28;19959;-60
2022/11/24 02:20:04;;;;;;;;;;;;;;;6.88;100.00;97225.03;5071525;28;19920;-60
2022/11/24 02:22:34;;;;;;;;;;;;;;;6.76;100.00;97221.75;5066960;28;19963;-60
2022/11/24 02:25:07;;;;;;;;;;;;;;;6.82;100.00;97223.41;5069111;28;20023;-61
2022/11/24 02:27:35;;;;;;;;;;;;;;;6.86;100.00;97235.13;5071837;28;19956;-61
2022/11/24 02:30:01;;;;;;;;;;;;;;;6.89;100.00;97227.44;5071641;28;19956;-61
2022/11/24 02:32:29;;;;;;;;;;;;;;;6.94;100.00;97238.09;5071568;28;19952;-60
2022/11/24 02:35:00;;;;;;;;;;;;;;;6.97;100.00;97239.41;5071386;28;19993;-60
2022/11/24 02:37:26;;;;;;;;;;;;;;;6.93;100.00;97235.69;5071502;28;19992;-60
2022/11/24 02:39:52;;;;;;;;;;;;;;;6.92;100.00;97242.06;5071454;28;19940;-61
2022/11/24 02:42:19;;;;;;;;;;;;;;;6.90;100.00;97244.19;5071499;28;19963;-60
2022/11/24 02:44:48;;;;;;;;;;;;;;;6.84;100.00;97240.66;5071537;28;19996;-60
2022/11/24 02:47:15;;;;;;;;;;;;;;;6.74;100.00;97253.88;5071338;28;19984;-60
2022/11/24 02:49:41;;;;;;;;;;;;;;;6.72;100.00;97255.16;5071419;28;19925;-60
2022/11/24 02:52:08;;;;;;;;;;;;;;;6.85;100.00;97254.75;5071064;28;20437;-60
2022/11/24 02:54:34;;;;;;;;;;;;;;;6.92;100.00;97268.59;5071153;28;19992;-60
2022/11/24 02:57:00;;;;;;;;;;;;;;;6.92;100.00;97268.59;5071103;28;19929;-61
2022/11/24 02:59:27;;;;;;;;;;;;;;;7.00;100.00;97273.41;5071053;28;19959;-60
2022/11/24 03:01:54;;;;;;;;;;;;;;;7.04;100.00;97270.00;5070918;28;19928;-60
2022/11/24 03:04:21;;;;;;;;;;;;;;;7.03;100.00;97278.22;5063035;28;19968;-60
2022/11/24 03:06:47;;;;;;;;;;;;;;;6.93;100.00;97280.81;5069535;28;20001;-60
2022/11/24 03:09:14;;;;;;;;;;;;;;;7.01;100.00;97285.66;5070683;28;19924;-61
2022/11/24 03:11:40;;;;;;;;;;;;;;;6.88;100.00;97284.22;5070740;28;20106;-61
2022/11/24 03:14:06;;;;;;;;;;;;;;;6.83;100.00;97288.69;5070404;28;19988;-60
2022/11/24 03:16:33;;;;;;;;;;;;;;;6.81;100.00;97286.28;5069537;28;19980;-61
2022/11/24 03:19:01;;;;;;;;;;;;;;;6.78;100.00;97297.41;5070383;28;19951;-60
2022/11/24 03:21:27;;;;;;;;;;;;;;;6.79;100.00;97290.25;5070650;28;19928;-61
2022/11/24 03:23:54;;;;;;;;;;;;;;;6.85;100.00;97297.19;5062863;28;19935;-59
2022/11/24 03:26:23;;;;;;;;;;;;;;;6.91;100.00;97301.50;5070472;28;19925;-61
2022/11/24 03:28:49;;;;;;;;;;;;;;;6.79;100.00;97301.66;5070541;28;19980;-60
2022/11/24 03:31:15;;;;;;;;;;;;;;;6.85;100.00;97297.19;5070489;28;19991;-61
2022/11/24 03:33:42;;;;;;;;;;;;;;;6.88;100.00;97294.03;5070276;28;19925;-61
2022/11/24 03:36:10;;;;;;;;;;;;;;;6.98;100.00;97302.09;5070335;28;19996;-60
2022/11/24 03:38:36;;;;;;;;;;;;;;;6.97;100.00;97300.47;5070357;28;19987;-61
2022/11/24 03:41:03;;;;;;;;;;;;;;;7.03;100.00;97300.25;5070512;28;19988;-60
2022/11/24 03:43:29;;;;;;;;;;;;;;;7.07;100.00;97316.47;5070421;28;19936;-60
2022/11/24 03:45:55;;;;;;;;;;;;;;;7.04;100.00;97311.69;5070216;28;19964;-60
2022/11/24 03:48:22;;;;;;;;;;;;;;;6.96;100.00;97320.13;5070327;28;19988;-60
2022/11/24 03:50:52;;;;;;;;;;;;;;;6.93;100.00;97320.63;5069966;28;20028;-61
2022/11/24 03:53:20;;;;;;;;;;;;;;;6.89;100.00;97330.16;5062784;28;19935;-60
2022/11/24 03:55:46;;;;;;;;;;;;;;;6.89;100.00;97325.66;5070269;28;19939;-61
2022/11/24 03:58:13;;;;;;;;;;;;;;;6.94;100.00;97338.13;5069959;28;19947;-60
2022/11/24 04:00:39;;;;;;;;;;;;;;;6.92;100.00;97337.59;5070082;28;19996;-60
2022/11/24 04:03:06;;;;;;;;;;;;;;;6.96;100.00;97330.75;5069884;28;19996;-60
2022/11/24 04:05:35;;;;;;;;;;;;;;;6.93;100.00;97337.34;5070026;28;19992;-61
2022/11/24 04:08:02;;;;;;;;;;;;;;;6.83;100.00;97336.47;5069621;28;19929;-60
2022/11/24 04:10:30;;;;;;;;;;;;;;;6.91;100.00;97338.66;5069798;28;19931;-60
2022/11/24 04:12:55;;;;;;;;;;;;;;;6.75;100.00;97339.56;5069497;28;19925;-61
2022/11/24 04:15:22;;;;;;;;;;;;;;;6.86;100.00;97338.63;5069822;28;19925;-60
2022/11/24 04:17:49;;;;;;;;;;;;;;;6.81;100.00;97343.88;5069538;28;19948;-60
2022/11/24 04:20:16;;;;;;;;;;;;;;;6.82;100.00;97335.66;5069436;28;20029;-61
2022/11/24 04:22:43;;;;;;;;;;;;;;;6.87;100.00;97337.56;5063780;28;19972;-60
2022/11/24 04:25:09;;;;;;;;;;;;;;;6.78;100.00;97339.06;5067781;28;20095;-60
2022/11/24 04:27:38;;;;;;;;;;;;;;;6.83;100.00;97339.13;5069364;28;19928;-60
2022/11/24 04:30:04;;;;;;;;;;;;;;;6.90;100.00;97345.03;5069357;28;19996;-60
2022/11/24 04:32:31;;;;;;;;;;;;;;;6.91;100.00;97351.91;5069613;28;19925;-60
2022/11/24 04:34:57;;;;;;;;;;;;;;;6.83;100.00;97337.28;5051353;28;19968;-60
2022/11/24 04:37:24;;;;;;;;;;;;;;;6.87;100.00;97350.84;5069509;28;19980;-60
2022/11/24 04:39:50;;;;;;;;;;;;;;;7.00;100.00;97356.53;5069392;28;20285;-61
2022/11/24 04:42:16;;;;;;;;;;;;;;;6.90;100.00;97360.97;5069273;28;20016;-61
2022/11/24 04:44:44;;;;;;;;;;;;;;;6.88;100.00;97360.38;5068807;28;19973;-60
2022/11/24 04:47:15;;;;;;;;;;;;;;;7.02;100.00;97366.91;5069261;28;20000;-60
2022/11/24 04:49:41;;;;;;;;;;;;;;;7.02;100.00;97370.31;5069441;28;19925;-61
2022/11/24 04:52:07;;;;;;;;;;;;;;;6.95;100.00;97369.75;5068572;28;20007;-60
2022/11/24 04:54:34;;;;;;;;;;;;;;;7.05;100.00;97374.34;5045284;28;19924;-60
2022/11/24 04:57:00;;;;;;;;;;;;;;;6.92;100.00;97378.22;5069065;28;19968;-60
2022/11/24 04:59:26;;;;;;;;;;;;;;;6.97;100.00;97388.06;5069286;28;19935;-61
2022/11/24 05:01:54;;;;;;;;;;;;;;;6.92;100.00;97385.38;5069135;28;19935;-60
2022/11/24 05:04:21;;;;;;;;;;;;;;;6.98;100.00;97387.84;5060942;28;20019;-60
2022/11/24 05:06:47;;;;;;;;;;;;;;;7.08;100.00;97395.09;5068887;28;19947;-61
2022/11/24 05:09:14;;;;;;;;;;;;;;;6.88;100.00;97386.94;5068676;28;19992;-61
2022/11/24 05:11:41;;;;;;;;;;;;;;;6.97;100.00;97396.03;5068924;28;19925;-60
2022/11/24 05:14:07;;;;;;;;;;;;;;;6.91;100.00;97397.84;5068729;28;19924;-60
2022/11/24 05:16:34;;;;;;;;;;;;;;;6.89;100.00;97388.53;5068839;28;19963;-60
2022/11/24 05:19:02;;;;;;;;;;;;;;;6.72;100.00;97409.88;5068722;28;19935;-60
2022/11/24 05:21:28;;;;;;;;;;;;;;;6.65;100.00;97406.63;5068928;28;19984;-61
2022/11/24 05:23:55;;;;;;;;;;;;;;;6.75;100.00;97398.75;5061418;28;20449;-62
2022/11/24 05:26:21;;;;;;;;;;;;;;;6.69;100.00;97414.88;5056246;28;19972;-60
2022/11/24 05:28:47;;;;;;;;;;;;;;;6.79;100.00;97415.78;5046615;28;19996;-60
2022/11/24 05:31:13;;;;;;;;;;;;;;;6.84;100.00;97423.00;5068798;28;19924;-60
2022/11/24 05:33:42;;;;;;;;;;;;;;;6.82;100.00;97423.25;5068676;28;19983;-60
2022/11/24 05:36:51;;;;;;;;;;;;;;;6.85;100.00;97414.78;5068659;28;19929;-60
2022/11/24 05:38:57;;;;;;;;;;;;;;;6.83;100.00;97429.34;5068432;28;19929;-61
2022/11/24 05:41:23;;;;;;;;;;;;;;;6.95;100.00;97424.69;5068791;28;20336;-60
2022/11/24 05:43:49;;;;;;;;;;;;;;;6.94;100.00;97428.38;5068450;28;19925;-60
2022/11/24 05:46:16;;;;;;;;;;;;;;;6.96;100.00;97431.63;5068131;28;19956;-60
2022/11/24 05:48:42;;;;;;;;;;;;;;;7.01;100.00;97431.66;5068582;28;19925;-60
2022/11/24 05:51:10;;;;;;;;;;;;;;;7.03;100.00;97432.19;5068426;28;19968;-60
2022/11/24 05:53:36;;;;;;;;;;;;;;;7.03;100.00;97437.50;5061078;28;19988;-61
2022/11/24 05:56:03;;;;;;;;;;;;;;;6.91;100.00;97450.13;5070697;28;19964;-61
2022/11/24 05:58:29;;;;;;;;;;;;;;;7.00;100.00;97456.59;5072329;28;19931;-60
2022/11/24 06:00:55;;;;;;;;;;;;;;;6.90;100.00;97453.84;5071897;28;20250;-60
2022/11/24 06:03:22;;;;;;;;;;;;;;;6.91;100.00;97458.09;5072080;28;19925;-60
2022/11/24 06:05:48;;;;;;;;;;;;;;;6.88;100.00;97450.63;5071952;28;19929;-60
2022/11/24 06:08:16;;;;;;;;;;;;;;;6.79;100.00;97449.47;5072025;28;19993;-64
2022/11/24 06:10:42;;;;;;;;;;;;;;;6.84;100.00;97466.25;5071961;28;20030;-60
2022/11/24 06:13:09;;;;;;;;;;;;;;;6.93;100.00;97471.94;5071835;28;19971;-61
2022/11/24 06:15:36;;;;;;;;;;;;;;;6.89;100.00;97473.47;5071594;28;19920;-61
2022/11/24 06:18:03;;;;;;;;;;;;;;;6.93;100.00;97482.56;5071907;28;19979;-60
2022/11/24 06:20:29;;;;;;;;;;;;;;;6.95;100.00;97493.72;5071637;28;19951;-60
2022/11/24 06:22:57;;;;;;;;;;;;;;;6.88;100.00;97483.28;5063720;28;19925;-59
2022/11/24 06:25:25;;;;;;;;;;;;;;;6.92;100.00;97486.25;5053603;28;19964;-60
2022/11/24 06:27:51;;;;;;;;;;;;;;;6.77;100.00;97486.91;5071352;28;19932;-61
2022/11/24 06:30:18;;;;;;;;;;;;;;;6.83;100.00;97490.41;5071436;28;20003;-61
2022/11/24 06:32:45;;;;;;;;;;;;;;;6.78;100.00;97498.28;5071349;28;19976;-60
2022/11/24 06:35:11;;;;;;;;;;;;;;;6.74;100.00;97491.91;5071343;28;19924;-60
2022/11/24 06:37:38;;;;;;;;;;;;;;;6.76;100.00;97492.44;5071388;28;19929;-60
2022/11/24 06:40:05;;;;;;;;;;;;;;;6.82;100.00;97494.09;5053177;28;20008;-60
2022/11/24 06:42:33;;;;;;;;;;;;;;;6.74;100.00;97497.19;5071502;28;19925;-60
2022/11/24 06:44:59;;;;;;;;;;;;;;;6.66;100.00;97503.72;5071053;28;19996;-60
2022/11/24 06:47:25;;;;;;;;;;;;;;;6.84;100.00;97492.78;5071532;28;19924;-61
2022/11/24 06:49:52;;;;;;;;;;;;;;;6.83;100.00;97498.38;5071298;28;19976;-61
2022/11/24 06:52:18;;;;;;;;;;;;;;;6.84;100.00;97498.09;5068877;28;19968;-60
2022/11/24 06:54:45;;;;;;;;;;;;;;;6.85;100.00;97497.06;5066518;28;19977;-61
2022/11/24 06:57:11;;;;;;;;;;;;;;;6.84;100.00;97497.31;5071321;28;19960;-61
2022/11/24 06:59:39;;;;;;;;;;;;;;;6.83;100.00;97496.50;5071313;28;19964;-60
2022/11/24 07:02:05;;;;;;;;;;;;;;;6.87;100.00;97499.47;5070925;28;19971;-61
2022/11/24 07:04:31;;;;;;;;;;;;;;;6.82;100.00;97494.91;5070945;28;20369;-61
2022/11/24 07:06:58;;;;;;;;;;;;;;;6.85;100.00;97509.53;5069893;28;19960;-61
2022/11/24 07:09:24;;;;;;;;;;;;;;;6.85;100.00;97515.63;5070683;28;19964;-60
2022/11/24 07:11:50;;;;;;;;;;;;;;;6.85;100.00;97507.69;5070727;28;19925;-60
2022/11/24 07:14:18;;;;;;;;;;;;;;;6.95;100.00;97507.00;5069163;28;19924;-60
2022/11/24 07:16:45;;;;;;;;;;;;;;;6.95;100.00;97513.09;5068888;28;19929;-60
2022/11/24 07:19:11;;;;;;;;;;;;;;;6.95;100.00;97513.09;5067136;28;20006;-60
2022/11/24 07:21:38;;;;;;;;;;;;;;;6.93;100.00;97511.75;5070231;28;19925;-59
2022/11/24 07:24:05;;;;;;;;;;;;;;;6.94;100.00;97513.34;5062934;28;19964;-60
2022/11/24 07:26:35;;;;;;;;;;;;;;;6.80;100.00;97512.94;5070448;28;19935;-60
2022/11/24 07:29:02;;;;;;;;;;;;;;;6.92;100.00;97507.50;5070462;28;20023;-60
2022/11/24 07:31:28;;;;;;;;;;;;;;;6.88;100.00;97516.97;5070513;28;19963;-61
2022/11/24 07:33:56;;;;;;;;;;;;;;;7.00;100.00;97522.97;5070379;28;19971;-60
2022/11/24 07:36:23;;;;;;;;;;;;;;;6.89;100.00;97519.41;5062800;28;19981;-60
2022/11/24 07:38:50;;;;;;;;;;;;;;;6.91;100.00;97519.16;5070335;28;19929;-61
2022/11/24 07:41:18;;;;;;;;;;;;;;;6.96;100.00;97527.19;5070272;28;19979;-60
2022/11/24 07:43:44;;;;;;;;;;;;;;;6.86;100.00;97533.19;5070313;28;19924;-61
2022/11/24 07:46:12;;;;;;;;;;;;;;;6.89;100.00;97523.91;5070050;28;19929;-61
2022/11/24 07:48:38;;;;;;;;;;;;;;;6.95;100.00;97530.88;5070305;28;19995;-60
2022/11/24 07:51:06;;;;;;;;;;;;;;;7.06;100.00;97538.69;5070034;28;19987;-60
2022/11/24 07:53:33;;;;;;;;;;;;;;;6.84;100.00;97542.44;5062800;28;20534;-60
2022/11/24 07:56:00;;;;;;;;;;;;;;;6.84;100.00;97550.41;5069805;28;19992;-60
2022/11/24 07:58:27;;;;;;;;;;;;;;;6.87;100.00;97556.00;5070160;28;19988;-61
2022/11/24 08:00:53;;;;;;;;;;;;;;;6.84;100.00;97555.72;5070249;28;19988;-60
2022/11/24 08:03:20;;;;;;;;;;;;;;;6.90;100.00;97552.84;5070025;28;19984;-61
2022/11/24 08:05:52;;;;;;;;;;;;;;;7.03;100.00;97541.84;5070107;28;19957;-60
2022/11/24 08:08:20;;;;;;;;;;;;;;;6.94;100.00;97550.50;5070109;28;19956;-60
2022/11/24 08:10:46;;;;;;;;;;;;;;;6.98;100.00;97555.06;5069917;28;19935;-61
2022/11/24 08:13:13;;;;;;;;;;;;;;;6.88;100.00;97551.50;5069911;28;19968;-60
2022/11/24 08:15:44;;;;;;;;;;;;;;;6.93;100.00;97554.22;5070557;28;19988;-61
2022/11/24 08:18:11;;;;;;;;;;;;;;;6.97;100.00;97555.31;5069777;28;19925;-60
2022/11/24 08:20:37;;;;;;;;;;;;;;;7.04;100.00;97566.56;5069691;28;19931;-60
2022/11/24 08:23:04;;;;;;;;;;;;;;;6.94;100.00;97564.59;5062249;28;19963;-60
2022/11/24 08:25:32;;;;;;;;;;;;;;;7.03;100.00;97564.94;5069956;28;20000;-60
2022/11/24 08:27:58;;;;;;;;;;;;;;;7.02;100.00;97568.66;5069647;28;19952;-61
2022/11/24 08:30:25;;;;;;;;;;;;;;;7.06;100.00;97567.09;5069698;28;19929;-60
2022/11/24 08:32:51;;;;;;;;;;;;;;;6.93;100.00;97568.28;5069741;28;19925;-60
2022/11/24 08:35:17;;;;;;;;;;;;;;;6.93;100.00;97570.16;5069516;28;19924;-61
2022/11/24 08:37:44;;;;;;;;;;;;;;;6.95;100.00;97570.69;5069851;28;19925;-61
2022/11/24 08:40:11;;;;;;;;;;;;;;;6.92;100.00;97563.22;5069488;28;19987;-61
2022/11/24 08:42:38;;;;;;;;;;;;;;;6.91;100.00;97561.63;5069913;28;19977;-61
2022/11/24 08:45:05;;;;;;;;;;;;;;;6.94;100.00;97561.94;5069667;28;19972;-61
2022/11/24 08:47:32;;;;;;;;;;;;;;;7.02;100.00;97563.34;5069730;28;19988;-62
2022/11/24 08:49:58;;;;;;;;;;;;;;;7.09;100.00;97563.94;5069655;28;19921;-61
2022/11/24 08:52:24;;;;;;;;;;;;;;;7.14;100.00;97549.94;5066725;28;20001;-60
2022/11/24 08:54:51;;;;;;;;;;;;;;;7.15;100.00;97554.97;5065637;28;20031;-60
2022/11/24 08:57:17;;;;;;;;;;;;;;;7.27;100.00;97560.16;5067435;28;19960;-61
2022/11/24 08:59:45;;;;;;;;;;;;;;;7.09;100.00;97563.16;5065646;28;19931;-60
2022/11/24 09:02:12;;;;;;;;;;;;;;;7.22;100.00;97563.56;5068318;28;19940;-60
2022/11/24 09:04:38;;;;;;;;;;;;;;;7.06;100.00;97565.25;5066299;28;19985;-61
2022/11/24 09:07:05;;;;;;;;;;;;;;;7.21;100.00;97561.16;5064966;28;20096;-60
2022/11/24 09:09:31;;;;;;;;;;;;;;;7.15;100.00;97578.88;5069191;28;20016;-60
2022/11/24 09:11:58;;;;;;;;;;;;;;;7.28;100.00;97575.03;5069337;28;19967;-60
2022/11/24 09:14:24;;;;;;;;;;;;;;;7.24;100.00;97580.03;5069339;28;19972;-60
2022/11/24 09:16:52;;;;;;;;;;;;;;;7.13;100.00;97575.69;5069229;28;19929;-59
2022/11/24 09:19:18;;;;;;;;;;;;;;;7.16;100.00;97580.50;5069410;28;19936;-61
2022/11/24 09:21:44;;;;;;;;;;;;;;;7.38;100.00;97575.16;5069176;28;19993;-60
2022/11/24 09:24:11;;;;;;;;;;;;;;;7.45;100.00;97584.53;5064260;28;19963;-61
2022/11/24 09:26:37;;;;;;;;;;;;;;;7.45;100.00;97579.22;5069278;28;19955;-60
2022/11/24 09:29:06;;;;;;;;;;;;;;;7.36;100.00;97579.91;5069278;28;19988;-60
2022/11/24 09:31:34;;;;;;;;;;;;;;;7.41;100.00;97570.13;5072658;28;19985;-61
2022/11/24 09:34:02;;;;;;;;;;;;;;;7.22;100.00;97563.56;5073171;28;19935;-61
2022/11/24 09:36:30;;;;;;;;;;;;;;;7.40;100.00;97575.69;5073131;28;19992;-60
2022/11/24 09:38:56;;;;;;;;;;;;;;;7.29;100.00;97574.00;5072670;28;19924;-61
2022/11/24 09:41:32;;;;;;;;;;;;;;;7.50;100.00;97581.13;5073055;28;19959;-61
2022/11/24 09:44:02;;;;;;;;;;;;;;;7.63;100.00;97580.72;5072858;28;19924;-61
2022/11/24 09:46:30;;;;;;;;;;;;;;;7.66;100.00;97579.41;5072951;28;19927;-60
2022/11/24 09:48:57;;;;;;;;;;;;;;;7.39;100.00;97574.09;5072765;28;19925;-60
2022/11/24 09:51:27;;;;;;;;;;;;;;;7.66;100.00;97584.72;5072761;28;20031;-60
2022/11/24 09:53:57;;;;;;;;;;;;;;;7.76;100.00;97580.31;5065213;28;19929;-60
2022/11/24 09:56:24;;;;;;;;;;;;;;;7.74;100.00;97576.28;5064910;28;19959;-61
2022/11/24 09:58:53;;;;;;;;;;;;;;;7.70;100.00;97585.81;5072687;28;19996;-60
2022/11/24 10:01:20;;;;;;;;;;;;;;;7.52;100.00;97579.03;5072655;28;19987;-60
2022/11/24 10:03:48;;;;;;;;;;;;;;;7.53;100.00;97581.41;5072702;28;19925;-61
2022/11/24 10:06:22;;;;;;;;;;;;;;;7.71;100.00;97590.88;5072680;28;19980;-60
2022/11/24 10:09:11;;;;;;;;;;;;;;;7.85;100.00;97596.59;5072741;28;19924;-60
2022/11/24 10:11:42;;;;;;;;;;;;;;;8.15;100.00;97579.03;5066684;28;19995;-61
2022/11/24 10:14:26;;;;;;;;;;;;;;;7.61;100.00;97583.59;5072170;28;20333;-59
2022/11/24 10:16:53;;;;;;;;;;;;;;;7.60;100.00;97584.69;5072070;28;19992;-60
2022/11/24 10:19:28;;;;;;;;;;;;;;;7.74;100.00;97587.72;5072623;28;19960;-60
2022/11/24 10:22:02;;;;;;;;;;;;;;;7.63;100.00;97585.22;5072048;28;19964;-60
2022/11/24 10:24:43;;;;;;;;;;;;;;;7.94;100.00;97587.91;5065131;28;19988;-60
2022/11/24 10:27:15;;;;;;;;;;;;;;;7.57;100.00;97585.19;5069635;28;20091;-61
2022/11/24 10:29:42;;;;;;;;;;;;;;;7.82;100.00;97589.13;5072412;28;19925;-61
2022/11/24 10:32:13;;;;;;;;;;;;;;;7.75;100.00;97588.50;5072037;28;20015;-60
2022/11/24 10:34:43;;;;;;;;;;;;;;;7.85;100.00;97591.28;5071983;28;19989;-60
2022/11/24 10:37:14;;;;;;;;;;;;;;;7.94;100.00;97590.56;5071820;28;19925;-61
2022/11/24 10:39:45;;;;;;;;;;;;;;;7.70;100.00;97596.47;5071897;28;19929;-60
2022/11/24 10:42:15;;;;;;;;;;;;;;;7.75;100.00;97588.50;5070568;28;19929;-60
2022/11/24 10:44:42;;;;;;;;;;;;;;;8.08;100.00;97583.75;5071976;28;19996;-60
2022/11/24 10:47:16;;;;;;;;;;;;;;;8.11;100.00;97582.44;5071696;28;19992;-61
2022/11/24 10:49:47;;;;;;;;;;;;;;;7.98;100.00;97598.84;5070764;28;19935;-60
2022/11/24 10:52:15;;;;;;;;;;;;;;;7.82;100.00;97594.44;5067604;28;19935;-60
2022/11/24 10:54:53;;;;;;;;;;;;;;;7.85;100.00;97599.25;5070605;28;19952;-61
2022/11/24 10:57:28;;;;;;;;;;;;;;;7.98;100.00;97596.94;5071760;28;20108;-60
2022/11/24 10:59:55;;;;;;;;;;;;;;;7.86;100.00;97603.53;5071706;28;19924;-60
2022/11/24 11:02:29;;;;;;;;;;;;;;;8.21;100.00;97592.34;5071908;28;19925;-61
2022/11/24 11:04:55;;;;;;;;;;;;;;;7.98;100.00;97594.28;5071828;28;19925;-60
2022/11/24 11:07:23;;;;;;;;;;;;;;;8.02;100.00;97592.75;5063588;28;20587;-60
2022/11/24 11:09:50;;;;;;;;;;;;;;;8.15;100.00;97599.50;5070298;28;19932;-61
2022/11/24 11:12:21;;;;;;;;;;;;;;;8.14;100.00;97593.38;5071469;28;20020;-61
2022/11/24 11:14:48;;;;;;;;;;;;;;;8.21;100.00;97590.50;5066793;28;19924;-60
2022/11/24 11:17:32;;;;;;;;;;;;;;;7.96;100.00;97600.94;5067948;28;19928;-61
2022/11/24 11:20:02;;;;;;;;;;;;;;;7.97;100.00;97602.53;5067126;28;19954;-61
2022/11/24 11:22:29;;;;;;;;;;;;;;;8.06;100.00;97598.34;5066190;28;19964;-60
2022/11/24 11:25:03;;;;;;;;;;;;;;;7.77;100.00;97600.50;5067497;28;19964;-60
2022/11/24 11:27:30;;;;;;;;;;;;;;;7.88;100.00;97604.88;5071064;28;19936;-60
2022/11/24 11:30:11;;;;;;;;;;;;;;;7.94;100.00;97608.38;5070978;28;19925;-60
2022/11/24 11:32:50;;;;;;;;;;;;;;;7.93;100.00;97601.44;5070840;28;19931;-61
2022/11/24 11:35:16;;;;;;;;;;;;;;;8.05;100.00;97608.19;5070882;28;19928;-61
2022/11/24 11:37:44;;;;;;;;;;;;;;;8.11;100.00;97606.38;5070760;28;19952;-60
2022/11/24 11:40:13;;;;;;;;;;;;;;;8.14;100.00;97613.84;5070595;28;19995;-60
2022/11/24 11:42:42;;;;;;;;;;;;;;;8.14;100.00;97614.63;5070874;28;19931;-61
2022/11/24 11:45:13;;;;;;;;;;;;;;;8.04;100.00;97619.91;5070442;28;19996;-62
2022/11/24 11:47:43;;;;;;;;;;;;;;;8.02;100.00;97624.66;5070616;28;20103;-61
2022/11/24 11:50:12;;;;;;;;;;;;;;;9.58;100.00;97611.41;5070560;28;19964;-60
2022/11/24 11:52:53;;;;;;;;;;;;;;;10.10;100.00;97610.38;5065343;28;19936;-62
2022/11/24 11:55:28;;;;;;;;;;;;;;;10.41;100.00;97604.00;5061266;28;19988;-61
2022/11/24 11:57:58;;;;;;;;;;;;;;;10.59;100.00;97606.09;5070449;28;19956;-61
2022/11/24 12:00:26;;;;;;;;;;;;;;;10.74;100.00;97598.06;5062729;28;19999;-61
2022/11/24 12:03:08;;;;;;;;;;;;;;;10.90;100.00;97608.69;5070500;28;19988;-60
2022/11/24 12:05:38;;;;;;;;;;;;;;;11.00;100.00;97606.81;5063974;28;19988;-61
2022/11/24 12:08:12;;;;;;;;;;;;;;;11.11;100.00;97604.91;5070240;28;19952;-60
2022/11/24 12:10:41;;;;;;;;;;;;;;;11.20;100.00;97612.06;5070382;28;19956;-61
2022/11/24 12:13:27;;;;;;;;;;;;;;;11.30;100.00;97608.53;5070166;28;19963;-61
2022/11/24 12:15:56;;;;;;;;;;;;;;;11.39;100.00;97614.91;5070073;28;19925;-60
2022/11/24 12:18:28;;;;;;;;;;;;;;;11.46;100.00;97617.28;5062556;28;19931;-60
2022/11/24 12:21:00;;;;;;;;;;;;;;;11.52;100.00;97616.19;5070064;28;19924;-60
2022/11/24 12:23:30;;;;;;;;;;;;;;;11.61;100.00;97622.56;5055220;28;19986;-60
2022/11/24 12:26:00;;;;;;;;;;;;;;;11.62;100.00;97622.28;5070117;28;20033;-61
2022/11/24 12:28:33;;;;;;;;;;;;;;;11.79;100.00;97628.09;5070316;28;20416;-60
2022/11/24 12:31:04;;;;;;;;;;;;;;;11.86;100.00;97622.44;5069758;28;19993;-60
2022/11/24 12:33:37;;;;;;;;;;;;;;;11.89;100.00;97622.69;5070040;28;19925;-61
2022/11/24 12:36:10;;;;;;;;;;;;;;;11.94;100.00;97629.09;5051828;28;19988;-61
2022/11/24 12:38:44;;;;;;;;;;;;;;;11.49;100.00;97632.78;5069022;28;19932;-61
2022/11/24 12:41:22;;;;;;;;;;;;;;;10.82;100.00;97631.44;5051988;28;20016;-61
2022/11/24 12:43:50;;;;;;;;;;;;;;;11.53;100.00;97629.31;5069980;28;19988;-60
2022/11/24 12:46:20;;;;;;;;;;;;;;;11.84;100.00;97636.09;5069593;28;19929;-60
2022/11/24 12:48:52;;;;;;;;;;;;;;;11.99;100.00;97631.72;5068523;28;19956;-61